Time;durP1;ratioP1;P1;durP2;ratioP2;P2;SDS_P1;SDS_P2;PMS_P1;PMS_P2;Temp;Humidity;BMP_temperature;BMP_pressure;BME280_temperature;BME280_humidity;BME280_pressure;Samples;Min_cycle;Max_cycle;Signal;HPM_P1;HPM_P2
2021/12/21 00:00:12;;;;;;;;;;;5.40;80.30;;;;;;6131543;23;19972;-80
2021/12/21 00:02:43;;;;;;;;;;;5.40;80.00;;;;;;6099782;23;19917;-80
2021/12/21 00:05:15;;;;;;;;;;;5.40;79.90;;;;;;6106539;23;19963;-80
2021/12/21 00:07:43;;;;;;;;;;;5.40;80.00;;;;;;6105358;23;20039;-81
2021/12/21 00:10:10;;;;;;;;;;;5.50;80.50;;;;;;6105939;23;19945;-80
2021/12/21 00:12:46;;;;;;;;;;;5.50;80.20;;;;;;6109143;23;19917;-78
2021/12/21 00:15:27;;;;;;;;;;;5.50;80.10;;;;;;6111356;23;19921;-81
2021/12/21 00:18:01;;;;;;;;;;;5.50;81.10;;;;;;6105128;23;19917;-81
2021/12/21 00:20:46;;;;;;;;;;;5.40;80.30;;;;;;6101144;23;19917;-79
2021/12/21 00:25:45;;;;;;;;;;;5.40;80.30;;;;;;6132102;23;20229;-80
2021/12/21 00:28:12;;;;;;;;;;;5.40;80.50;;;;;;6105744;23;19920;-80
2021/12/21 00:30:39;;;;;;;;;;;5.40;80.60;;;;;;6100821;23;19964;-81
2021/12/21 00:33:06;;;;;;;;;;;5.40;80.70;;;;;;6100561;23;19945;-80
2021/12/21 00:35:33;;;;;;;;;;;5.40;80.70;;;;;;6102804;23;19923;-78
2021/12/21 00:37:59;;;;;;;;;;;5.40;80.80;;;;;;6101454;23;19917;-80
2021/12/21 00:40:26;;;;;;;;;;;5.40;80.80;;;;;;6100505;23;19920;-80
2021/12/21 00:42:53;;;;;;;;;;;5.40;80.80;;;;;;6101319;23;19916;-78
2021/12/21 00:45:21;;;;;;;;;;;5.30;81.80;;;;;;6110120;23;19972;-79
2021/12/21 00:47:49;;;;;;;;;;;5.30;81.20;;;;;;6131065;23;20397;-80
2021/12/21 00:50:17;;;;;;;;;;;5.30;81.10;;;;;;6110892;23;19924;-80
2021/12/21 00:52:45;;;;;;;;;;;5.40;81.00;;;;;;6110771;23;19920;-80
2021/12/21 00:55:12;;;;;;;;;;;5.40;81.10;;;;;;6105059;23;19925;-81
2021/12/21 00:57:39;;;;;;;;;;;5.40;80.90;;;;;;6110874;23;19917;-81
2021/12/21 01:00:07;;;;;;;;;;;5.40;80.80;;;;;;6104906;23;19944;-80
2021/12/21 01:02:34;;;;;;;;;;;5.40;80.80;;;;;;6099366;23;19916;-80
2021/12/21 01:05:02;;;;;;;;;;;5.40;80.50;;;;;;6099410;23;19924;-80
2021/12/21 01:07:35;;;;;;;;;;;5.40;80.70;;;;;;6101850;23;20231;-80
2021/12/21 01:10:51;;;;;;;;;;;5.50;80.80;;;;;;6101786;23;19917;-81
2021/12/21 01:18:06;;;;;;;;;;;5.60;80.60;;;;;;6128791;23;20278;-78
2021/12/21 01:25:44;;;;;;;;;;;5.70;80.10;;;;;;6107257;23;19921;-81
2021/12/21 01:28:22;;;;;;;;;;;5.70;79.70;;;;;;6110526;23;19917;-80
2021/12/21 01:30:59;;;;;;;;;;;5.80;78.80;;;;;;6116342;23;19920;-79
2021/12/21 01:36:29;;;;;;;;;;;5.80;79.00;;;;;;6131075;23;20325;-81
2021/12/21 01:39:08;;;;;;;;;;;5.80;79.00;;;;;;6099711;23;20301;-79
2021/12/21 01:41:43;;;;;;;;;;;5.80;78.90;;;;;;6101969;23;20372;-80
2021/12/21 01:49:45;;;;;;;;;;;5.80;77.90;;;;;;6132653;23;19917;-81
2021/12/21 01:52:13;;;;;;;;;;;5.80;77.50;;;;;;6125888;23;19923;-79
2021/12/21 01:54:40;;;;;;;;;;;5.80;77.30;;;;;;6104329;23;19917;-80
2021/12/21 01:57:07;;;;;;;;;;;5.80;77.20;;;;;;6100220;23;19920;-80
2021/12/21 01:59:35;;;;;;;;;;;5.80;77.00;;;;;;6105095;23;19924;-80
2021/12/21 02:02:03;;;;;;;;;;;5.80;76.70;;;;;;6082571;23;19952;-80
2021/12/21 02:04:30;;;;;;;;;;;5.80;76.70;;;;;;6131718;23;20389;-79
2021/12/21 02:06:56;;;;;;;;;;;5.80;76.70;;;;;;6107217;23;19917;-81
2021/12/21 02:09:30;;;;;;;;;;;5.80;76.80;;;;;;6104987;23;19975;-78
2021/12/21 02:11:57;;;;;;;;;;;5.80;76.70;;;;;;6111085;23;19921;-79
2021/12/21 02:14:24;;;;;;;;;;;5.80;76.40;;;;;;6116162;23;20254;-80
2021/12/21 02:17:14;;;;;;;;;;;5.80;76.40;;;;;;6102729;23;19983;-80
2021/12/21 02:19:41;;;;;;;;;;;5.80;76.40;;;;;;6124027;23;19975;-80
2021/12/21 02:22:19;;;;;;;;;;;5.80;76.00;;;;;;6104379;23;19916;-78
2021/12/21 02:25:03;;;;;;;;;;;5.80;76.00;;;;;;6134615;23;19925;-78
2021/12/21 02:27:42;;;;;;;;;;;5.80;76.10;;;;;;6125094;23;19916;-80
2021/12/21 02:30:13;;;;;;;;;;;5.80;76.30;;;;;;6106183;23;19939;-81
2021/12/21 02:32:40;;;;;;;;;;;5.80;76.00;;;;;;6100937;23;19916;-80
2021/12/21 02:35:08;;;;;;;;;;;5.80;75.90;;;;;;6104818;23;19920;-80
2021/12/21 02:37:34;;;;;;;;;;;5.80;76.00;;;;;;6103280;23;19944;-78
2021/12/21 02:40:01;;;;;;;;;;;5.80;76.20;;;;;;6105436;23;19921;-80
2021/12/21 02:42:28;;;;;;;;;;;5.80;76.10;;;;;;6098968;23;19963;-81
2021/12/21 02:44:55;;;;;;;;;;;5.80;75.90;;;;;;6116481;23;19928;-80
2021/12/21 02:47:22;;;;;;;;;;;5.90;75.40;;;;;;6099694;23;19920;-81
2021/12/21 02:49:49;;;;;;;;;;;5.90;75.20;;;;;;6110707;23;19932;-81
2021/12/21 02:52:16;;;;;;;;;;;5.80;75.10;;;;;;6105627;23;19916;-81
2021/12/21 02:54:42;;;;;;;;;;;5.90;74.90;;;;;;6133289;23;19931;-79
2021/12/21 02:57:09;;;;;;;;;;;5.80;74.90;;;;;;6142487;23;19967;-81
2021/12/21 02:59:36;;;;;;;;;;;5.80;75.00;;;;;;6104568;23;19921;-80
2021/12/21 03:02:03;;;;;;;;;;;5.80;75.10;;;;;;6115833;23;19968;-80
2021/12/21 03:04:30;;;;;;;;;;;5.80;75.20;;;;;;6107335;23;19920;-78
2021/12/21 03:12:08;;;;;;;;;;;5.80;74.50;;;;;;6126173;23;19924;-80
2021/12/21 03:14:35;;;;;;;;;;;5.80;74.70;;;;;;6111471;23;19920;-81
2021/12/21 03:17:02;;;;;;;;;;;5.80;74.60;;;;;;6102942;23;19920;-80
2021/12/21 03:19:29;;;;;;;;;;;5.80;74.60;;;;;;6106901;23;20330;-78
2021/12/21 03:21:56;;;;;;;;;;;5.80;74.30;;;;;;6145517;23;19924;-80
2021/12/21 03:24:23;;;;;;;;;;;5.80;74.10;;;;;;6134574;23;19916;-80
2021/12/21 03:26:50;;;;;;;;;;;5.80;74.10;;;;;;6111252;23;19924;-81
2021/12/21 03:29:17;;;;;;;;;;;5.80;74.00;;;;;;6102149;23;19968;-78
2021/12/21 03:31:45;;;;;;;;;;;5.90;73.60;;;;;;6105311;23;19968;-79
2021/12/21 03:34:12;;;;;;;;;;;5.80;73.40;;;;;;6102016;23;20309;-79
2021/12/21 03:36:40;;;;;;;;;;;5.90;73.30;;;;;;6080590;23;19917;-79
2021/12/21 03:39:17;;;;;;;;;;;5.90;73.10;;;;;;6106109;23;19928;-78
2021/12/21 03:41:47;;;;;;;;;;;5.90;72.80;;;;;;6105432;23;19964;-81
2021/12/21 03:44:15;;;;;;;;;;;5.80;73.00;;;;;;6113107;23;19917;-78
2021/12/21 03:46:48;;;;;;;;;;;5.80;73.00;;;;;;6116747;23;19929;-81
2021/12/21 03:51:56;;;;;;;;;;;5.80;72.90;;;;;;6127047;23;19917;-80
2021/12/21 03:54:23;;;;;;;;;;;5.80;73.00;;;;;;6106930;23;19925;-80
2021/12/21 03:56:51;;;;;;;;;;;5.80;73.00;;;;;;6106988;23;19921;-80
2021/12/21 03:59:19;;;;;;;;;;;5.80;72.80;;;;;;6106242;23;19917;-80
2021/12/21 04:01:47;;;;;;;;;;;5.80;72.90;;;;;;6105349;23;19944;-79
2021/12/21 04:04:18;;;;;;;;;;;5.80;72.90;;;;;;6102917;23;19920;-80
2021/12/21 04:06:45;;;;;;;;;;;5.80;72.70;;;;;;6101097;23;19924;-80
2021/12/21 04:09:12;;;;;;;;;;;5.80;72.60;;;;;;6101657;23;19921;-80
2021/12/21 04:11:39;;;;;;;;;;;5.80;72.60;;;;;;6100231;23;20338;-79
2021/12/21 04:14:06;;;;;;;;;;;5.80;72.60;;;;;;6100779;23;19917;-81
2021/12/21 04:16:33;;;;;;;;;;;5.80;72.40;;;;;;6116078;23;19952;-80
2021/12/21 04:19:00;;;;;;;;;;;5.80;72.30;;;;;;6100748;23;19925;-80
2021/12/21 04:21:27;;;;;;;;;;;5.80;72.50;;;;;;6106318;23;20338;-80
2021/12/21 04:23:54;;;;;;;;;;;5.90;72.50;;;;;;6105060;23;19921;-80
2021/12/21 04:26:21;;;;;;;;;;;5.90;72.70;;;;;;6111063;23;19929;-78
2021/12/21 04:28:54;;;;;;;;;;;5.90;72.50;;;;;;6141361;23;20189;-78
2021/12/21 04:31:21;;;;;;;;;;;5.90;72.40;;;;;;6129394;23;19916;-80
2021/12/21 04:33:48;;;;;;;;;;;5.90;72.40;;;;;;6076805;23;19928;-80
2021/12/21 04:36:14;;;;;;;;;;;5.90;72.20;;;;;;6082327;23;19925;-81
2021/12/21 04:38:44;;;;;;;;;;;5.90;72.10;;;;;;6076121;23;19924;-79
2021/12/21 04:41:21;;;;;;;;;;;5.90;72.20;;;;;;6074293;23;20235;-80
2021/12/21 04:43:48;;;;;;;;;;;5.90;72.10;;;;;;6076254;23;19921;-80
2021/12/21 04:46:15;;;;;;;;;;;5.90;72.30;;;;;;6077585;23;19972;-81
2021/12/21 04:48:42;;;;;;;;;;;5.90;72.40;;;;;;6071334;23;20402;-79
2021/12/21 04:51:09;;;;;;;;;;;5.90;72.20;;;;;;6077203;23;19921;-81
2021/12/21 04:53:36;;;;;;;;;;;5.90;72.20;;;;;;6082514;23;19901;-79
2021/12/21 04:56:03;;;;;;;;;;;5.90;72.20;;;;;;6082230;23;19928;-79
2021/12/21 04:58:30;;;;;;;;;;;5.90;73.10;;;;;;6088263;23;19927;-79
2021/12/21 05:00:57;;;;;;;;;;;5.90;72.20;;;;;;6092290;23;19925;-78
2021/12/21 05:03:24;;;;;;;;;;;5.90;72.10;;;;;;6082846;23;19917;-80
2021/12/21 05:05:52;;;;;;;;;;;5.90;71.90;;;;;;6076080;23;19917;-81
2021/12/21 05:08:22;;;;;;;;;;;5.90;71.80;;;;;;6077838;23;19917;-80
2021/12/21 05:10:52;;;;;;;;;;;5.90;71.70;;;;;;6076945;23;19917;-81
2021/12/21 05:13:21;;;;;;;;;;;6.00;71.40;;;;;;6082559;23;19930;-79
2021/12/21 05:15:48;;;;;;;;;;;5.90;71.20;;;;;;6084968;23;20401;-78
2021/12/21 05:18:16;;;;;;;;;;;6.00;71.30;;;;;;6078493;23;19976;-79
2021/12/21 05:20:43;;;;;;;;;;;6.00;71.20;;;;;;6085057;23;19909;-79
2021/12/21 05:23:10;;;;;;;;;;;6.00;71.80;;;;;;6111513;23;20339;-80
2021/12/21 05:25:38;;;;;;;;;;;6.00;71.10;;;;;;6076239;23;19917;-80
2021/12/21 05:28:05;;;;;;;;;;;6.00;71.10;;;;;;6072071;23;19921;-80
2021/12/21 05:30:34;;;;;;;;;;;6.00;71.00;;;;;;6071067;23;19948;-80
2021/12/21 05:33:01;;;;;;;;;;;6.00;70.90;;;;;;6092340;23;19920;-79
2021/12/21 05:35:27;;;;;;;;;;;6.00;70.90;;;;;;6105970;23;19921;-79
2021/12/21 05:37:59;;;;;;;;;;;6.00;70.70;;;;;;6103093;23;20428;-80
2021/12/21 05:40:35;;;;;;;;;;;6.00;70.60;;;;;;6121315;23;19968;-81
2021/12/21 05:43:02;;;;;;;;;;;6.00;70.60;;;;;;6106131;23;19912;-78
2021/12/21 05:45:29;;;;;;;;;;;6.00;70.80;;;;;;6114971;23;19901;-78
2021/12/21 05:47:56;;;;;;;;;;;6.00;70.80;;;;;;6106116;23;19944;-79
2021/12/21 05:50:23;;;;;;;;;;;6.00;70.60;;;;;;6108419;23;19942;-79
2021/12/21 05:52:50;;;;;;;;;;;6.00;70.80;;;;;;6106738;23;20372;-81
2021/12/21 05:55:18;;;;;;;;;;;6.00;71.10;;;;;;6099293;23;19917;-81
2021/12/21 05:57:45;;;;;;;;;;;6.00;70.90;;;;;;6098850;23;19921;-79
2021/12/21 06:00:17;;;;;;;;;;;6.00;70.80;;;;;;6105173;23;19917;-79
2021/12/21 06:02:44;;;;;;;;;;;6.00;71.00;;;;;;6104367;23;19917;-79
2021/12/21 06:05:11;;;;;;;;;;;6.00;70.80;;;;;;6105133;23;20342;-79
2021/12/21 06:07:38;;;;;;;;;;;6.00;70.90;;;;;;6130533;23;20282;-80
2021/12/21 06:10:29;;;;;;;;;;;5.90;70.80;;;;;;6124597;23;19924;-79
2021/12/21 06:26:13;;;;;;;;;;;6.00;70.10;;;;;;6134488;23;19909;-80
2021/12/21 06:28:41;;;;;;;;;;;6.00;70.20;;;;;;6110300;23;19999;-79
2021/12/21 06:31:08;;;;;;;;;;;6.00;70.10;;;;;;6113797;23;19986;-80
2021/12/21 06:33:35;;;;;;;;;;;6.10;70.00;;;;;;6099659;23;19970;-80
2021/12/21 06:36:03;;;;;;;;;;;6.10;69.90;;;;;;6106751;23;19924;-80
2021/12/21 06:38:30;;;;;;;;;;;6.10;69.90;;;;;;6110738;23;19924;-80
2021/12/21 06:40:57;;;;;;;;;;;6.10;69.80;;;;;;6131148;23;20393;-79
2021/12/21 06:43:24;;;;;;;;;;;6.00;69.70;;;;;;6109056;23;19932;-79
2021/12/21 06:46:06;;;;;;;;;;;6.00;71.00;;;;;;6107754;23;19900;-80
2021/12/21 06:51:25;;;;;;;;;;;5.80;72.70;;;;;;6131489;23;20360;-80
2021/12/21 06:53:53;;;;;;;;;;;5.80;73.30;;;;;;6101224;23;20350;-79
2021/12/21 06:56:23;;;;;;;;;;;5.70;74.80;;;;;;6107429;23;19917;-80
2021/12/21 06:58:51;;;;;;;;;;;5.60;74.60;;;;;;6107673;23;19972;-79
2021/12/21 07:01:19;;;;;;;;;;;5.60;74.80;;;;;;6105985;23;20276;-79
2021/12/21 07:03:46;;;;;;;;;;;5.60;75.20;;;;;;6106523;23;19940;-80
2021/12/21 07:06:13;;;;;;;;;;;5.50;75.10;;;;;;6106062;23;19988;-80
2021/12/21 07:08:48;;;;;;;;;;;5.50;75.10;;;;;;6117166;23;19909;-80
2021/12/21 07:11:25;;;;;;;;;;;5.60;74.90;;;;;;6100341;23;19921;-80
2021/12/21 07:19:23;;;;;;;;;;;5.80;71.60;;;;;;6135046;23;20258;-79
2021/12/21 07:21:50;;;;;;;;;;;5.80;70.70;;;;;;6117367;23;19920;-79
2021/12/21 07:24:17;;;;;;;;;;;5.90;70.80;;;;;;6111274;23;19921;-80
2021/12/21 07:26:44;;;;;;;;;;;5.90;70.60;;;;;;6136368;23;19901;-79
2021/12/21 07:29:10;;;;;;;;;;;6.00;70.30;;;;;;6102671;23;20014;-79
2021/12/21 07:31:37;;;;;;;;;;;6.00;70.10;;;;;;6099810;23;20357;-79
2021/12/21 07:34:04;;;;;;;;;;;6.00;69.90;;;;;;6103386;23;20400;-79
2021/12/21 07:36:32;;;;;;;;;;;6.00;69.60;;;;;;6130542;23;19916;-79
2021/12/21 07:38:59;;;;;;;;;;;6.10;69.50;;;;;;6110268;23;19917;-79
2021/12/21 07:41:27;;;;;;;;;;;6.10;69.30;;;;;;6106289;23;20288;-80
2021/12/21 07:43:54;;;;;;;;;;;6.10;69.50;;;;;;6100977;23;20337;-79
2021/12/21 07:46:21;;;;;;;;;;;6.10;69.40;;;;;;6141102;23;19941;-79
2021/12/21 07:48:48;;;;;;;;;;;6.10;69.00;;;;;;6111732;23;19983;-79
2021/12/21 07:51:15;;;;;;;;;;;6.10;69.20;;;;;;6099989;23;19920;-80
2021/12/21 07:53:42;;;;;;;;;;;6.20;68.80;;;;;;6111589;23;19917;-80
2021/12/21 07:56:09;;;;;;;;;;;6.20;68.60;;;;;;6106544;23;20310;-79
2021/12/21 07:58:36;;;;;;;;;;;6.20;69.30;;;;;;6106726;23;19983;-79
2021/12/21 08:01:04;;;;;;;;;;;6.20;68.20;;;;;;6109756;23;19921;-80
2021/12/21 08:03:34;;;;;;;;;;;6.20;68.20;;;;;;6105986;23;19967;-79
2021/12/21 08:06:03;;;;;;;;;;;6.30;68.00;;;;;;6100510;23;19923;-79
2021/12/21 08:08:30;;;;;;;;;;;6.40;67.50;;;;;;6106049;23;20342;-79
2021/12/21 08:11:14;;;;;;;;;;;6.40;67.40;;;;;;6110761;23;20315;-79
2021/12/21 08:13:43;;;;;;;;;;;6.40;67.40;;;;;;6105640;23;19909;-79
2021/12/21 08:16:11;;;;;;;;;;;6.40;67.20;;;;;;6100493;23;19964;-81
2021/12/21 08:18:37;;;;;;;;;;;6.50;67.30;;;;;;6109636;23;19972;-80
2021/12/21 08:21:05;;;;;;;;;;;6.50;67.40;;;;;;6110939;23;19976;-79
2021/12/21 08:23:31;;;;;;;;;;;6.50;66.80;;;;;;6110047;23;19940;-80
2021/12/21 08:25:58;;;;;;;;;;;6.60;66.90;;;;;;6110778;23;19925;-80
2021/12/21 08:28:25;;;;;;;;;;;6.60;66.50;;;;;;6140886;23;20342;-80
2021/12/21 08:30:52;;;;;;;;;;;6.60;66.60;;;;;;6130895;23;19917;-80
2021/12/21 08:33:22;;;;;;;;;;;6.70;66.50;;;;;;6100048;23;20338;-80
2021/12/21 08:35:49;;;;;;;;;;;6.70;65.80;;;;;;6109463;23;19974;-79
2021/12/21 08:38:18;;;;;;;;;;;6.70;65.90;;;;;;6111352;23;20294;-79
2021/12/21 08:40:49;;;;;;;;;;;6.80;65.50;;;;;;6105098;23;19931;-81
2021/12/21 08:43:17;;;;;;;;;;;6.80;65.50;;;;;;6131486;23;20342;-79
2021/12/21 08:45:45;;;;;;;;;;;6.90;65.10;;;;;;6108638;23;19917;-79
2021/12/21 08:48:13;;;;;;;;;;;6.90;64.40;;;;;;6105962;23;19901;-80
2021/12/21 08:50:40;;;;;;;;;;;7.00;64.50;;;;;;6105336;23;19963;-80
2021/12/21 08:53:08;;;;;;;;;;;7.00;64.60;;;;;;6137291;23;19968;-79
2021/12/21 08:55:35;;;;;;;;;;;7.00;64.90;;;;;;6125084;23;19925;-80
2021/12/21 08:58:02;;;;;;;;;;;7.00;64.80;;;;;;6100505;23;19920;-79
2021/12/21 09:00:28;;;;;;;;;;;7.00;64.80;;;;;;6116489;23;19965;-80
2021/12/21 09:02:55;;;;;;;;;;;7.00;64.80;;;;;;6106158;23;19921;-80
2021/12/21 09:05:26;;;;;;;;;;;7.00;65.00;;;;;;6108264;23;19920;-81
2021/12/21 09:07:54;;;;;;;;;;;7.10;64.60;;;;;;6107669;23;20397;-80
2021/12/21 09:10:22;;;;;;;;;;;7.10;63.80;;;;;;6100194;23;19948;-79
2021/12/21 09:12:49;;;;;;;;;;;7.20;63.40;;;;;;6105023;23;19929;-80
2021/12/21 09:15:17;;;;;;;;;;;7.20;62.60;;;;;;6100460;23;19924;-79
2021/12/21 09:17:44;;;;;;;;;;;7.30;62.70;;;;;;6136135;23;19920;-80
2021/12/21 09:20:15;;;;;;;;;;;7.30;62.60;;;;;;6116997;23;19901;-79
2021/12/21 09:22:45;;;;;;;;;;;7.30;62.40;;;;;;6111687;23;21301;-80
2021/12/21 09:25:12;;;;;;;;;;;7.30;62.60;;;;;;6104621;23;19968;-79
2021/12/21 09:27:40;;;;;;;;;;;7.30;62.20;;;;;;6109662;23;19917;-79
2021/12/21 09:30:08;;;;;;;;;;;7.30;62.60;;;;;;6100056;23;19917;-80
2021/12/21 09:32:35;;;;;;;;;;;7.30;62.60;;;;;;6103266;23;19945;-79
2021/12/21 09:35:02;;;;;;;;;;;7.30;62.70;;;;;;6111929;23;19940;-80
2021/12/21 09:37:32;;;;;;;;;;;7.40;63.20;;;;;;6114193;23;20444;-80
2021/12/21 09:39:59;;;;;;;;;;;7.40;62.00;;;;;;6110524;23;19921;-80
2021/12/21 09:42:29;;;;;;;;;;;7.40;61.50;;;;;;6107797;23;20483;-80
2021/12/21 09:44:57;;;;;;;;;;;7.50;61.60;;;;;;6110216;23;20452;-80
2021/12/21 09:47:26;;;;;;;;;;;7.50;61.50;;;;;;6099536;23;19921;-79
2021/12/21 09:49:53;;;;;;;;;;;7.60;61.80;;;;;;6110065;23;19924;-80
2021/12/21 09:52:21;;;;;;;;;;;7.50;60.90;;;;;;6111823;23;19929;-79
2021/12/21 09:54:50;;;;;;;;;;;7.60;61.20;;;;;;6108076;23;19925;-80
2021/12/21 09:57:19;;;;;;;;;;;7.60;61.50;;;;;;6100189;23;20006;-79
2021/12/21 09:59:47;;;;;;;;;;;7.60;60.90;;;;;;6098869;23;20356;-79
2021/12/21 10:02:14;;;;;;;;;;;7.70;61.10;;;;;;6104881;23;19921;-79
2021/12/21 10:04:51;;;;;;;;;;;7.70;61.20;;;;;;6104263;23;19920;-79
2021/12/21 10:07:19;;;;;;;;;;;7.70;60.50;;;;;;6105458;23;19921;-79
2021/12/21 10:09:47;;;;;;;;;;;7.70;60.60;;;;;;6103616;23;19905;-79
2021/12/21 10:12:14;;;;;;;;;;;7.80;60.80;;;;;;6116327;23;19925;-79
2021/12/21 10:14:41;;;;;;;;;;;7.80;60.50;;;;;;6104484;23;19928;-80
2021/12/21 10:17:10;;;;;;;;;;;7.80;60.50;;;;;;6105206;23;19924;-79
2021/12/21 10:19:37;;;;;;;;;;;7.90;60.10;;;;;;6107162;23;19921;-79
2021/12/21 10:22:08;;;;;;;;;;;7.90;60.10;;;;;;6131998;23;20338;-79
2021/12/21 10:24:43;;;;;;;;;;;7.90;59.80;;;;;;6135358;23;19929;-80
2021/12/21 10:27:10;;;;;;;;;;;8.00;59.60;;;;;;6105297;23;19925;-79
2021/12/21 10:29:40;;;;;;;;;;;8.00;59.60;;;;;;6103957;23;19921;-81
2021/12/21 10:32:15;;;;;;;;;;;8.10;59.50;;;;;;6107649;23;19921;-78
2021/12/21 10:34:49;;;;;;;;;;;8.10;59.70;;;;;;6136169;23;19921;-80
2021/12/21 10:37:27;;;;;;;;;;;8.10;59.60;;;;;;6130583;23;19932;-80
2021/12/21 10:40:13;;;;;;;;;;;8.20;59.20;;;;;;6107807;23;21041;-79
2021/12/21 10:43:02;;;;;;;;;;;8.20;59.00;;;;;;6104873;23;19922;-80
2021/12/21 10:45:29;;;;;;;;;;;8.20;59.00;;;;;;6087849;23;19915;-80
2021/12/21 10:47:57;;;;;;;;;;;8.30;59.40;;;;;;6104998;23;19909;-80
2021/12/21 10:50:24;;;;;;;;;;;8.30;59.40;;;;;;6104640;23;19921;-80
2021/12/21 10:52:53;;;;;;;;;;;8.30;59.30;;;;;;6109795;23;20342;-79
2021/12/21 10:55:31;;;;;;;;;;;8.30;59.50;;;;;;6100015;23;19931;-80
2021/12/21 10:58:09;;;;;;;;;;;8.30;58.90;;;;;;6109740;23;19925;-81
2021/12/21 11:00:37;;;;;;;;;;;8.40;58.50;;;;;;6109221;23;20011;-80
2021/12/21 11:03:04;;;;;;;;;;;8.40;58.50;;;;;;6107963;23;19925;-80
2021/12/21 11:05:34;;;;;;;;;;;8.40;59.00;;;;;;6107452;23;19984;-80
2021/12/21 11:08:07;;;;;;;;;;;8.50;58.60;;;;;;6108619;23;19931;-80
2021/12/21 11:10:36;;;;;;;;;;;8.50;59.70;;;;;;6142935;23;19921;-80
2021/12/21 11:13:12;;;;;;;;;;;8.50;58.50;;;;;;6102675;23;19932;-80
2021/12/21 11:15:40;;;;;;;;;;;8.60;57.90;;;;;;6111035;23;19929;-80
2021/12/21 11:18:16;;;;;;;;;;;8.60;57.60;;;;;;6109778;23;19924;-79
2021/12/21 11:20:45;;;;;;;;;;;8.60;57.70;;;;;;6098435;23;19928;-80
2021/12/21 11:23:15;;;;;;;;;;;8.70;57.10;;;;;;6105088;23;19905;-80
2021/12/21 11:25:43;;;;;;;;;;;8.60;57.10;;;;;;6110301;23;19924;-80
2021/12/21 11:28:20;;;;;;;;;;;8.70;57.40;;;;;;6109498;23;19983;-79
2021/12/21 11:30:46;;;;;;;;;;;8.70;57.70;;;;;;6110086;23;19912;-80
2021/12/21 11:33:16;;;;;;;;;;;8.70;56.70;;;;;;6105325;23;19924;-79
2021/12/21 11:38:11;;;;;;;;;;;8.80;56.00;;;;;;6126105;23;19924;-80
2021/12/21 11:40:40;;;;;;;;;;;8.80;56.80;;;;;;6111660;23;19921;-80
2021/12/21 11:43:12;;;;;;;;;;;8.80;57.20;;;;;;6100473;23;20330;-81
2021/12/21 11:45:46;;;;;;;;;;;8.80;57.70;;;;;;6106286;23;20180;-80
2021/12/21 11:48:32;;;;;;;;;;;8.80;57.20;;;;;;6112028;23;19975;-80
2021/12/21 11:51:03;;;;;;;;;;;8.80;57.50;;;;;;6110971;23;19949;-79
2021/12/21 11:53:30;;;;;;;;;;;8.80;57.10;;;;;;6111267;23;19956;-80
2021/12/21 11:55:57;;;;;;;;;;;8.80;57.70;;;;;;6115737;23;19921;-80
2021/12/21 11:58:28;;;;;;;;;;;8.80;56.70;;;;;;6111442;23;19925;-80
2021/12/21 12:01:00;;;;;;;;;;;8.80;56.30;;;;;;6108683;23;19921;-80
2021/12/21 12:03:29;;;;;;;;;;;8.90;55.80;;;;;;6110579;23;19949;-79
2021/12/21 12:05:58;;;;;;;;;;;8.90;55.90;;;;;;6101047;23;20358;-81
2021/12/21 12:08:27;;;;;;;;;;;9.00;56.10;;;;;;6105662;23;19948;-80
2021/12/21 12:10:55;;;;;;;;;;;9.00;56.00;;;;;;6099747;23;19948;-81
2021/12/21 12:13:27;;;;;;;;;;;9.00;56.30;;;;;;6102891;23;19995;-81
2021/12/21 12:15:56;;;;;;;;;;;9.10;56.40;;;;;;6103988;23;20302;-79
2021/12/21 12:18:27;;;;;;;;;;;9.00;55.80;;;;;;6113203;23;19911;-80
2021/12/21 12:20:55;;;;;;;;;;;9.10;55.30;;;;;;6099308;23;19925;-80
2021/12/21 12:23:23;;;;;;;;;;;9.10;56.40;;;;;;6102677;23;19929;-80
2021/12/21 12:25:51;;;;;;;;;;;9.10;56.20;;;;;;6113287;23;19931;-80
2021/12/21 12:28:22;;;;;;;;;;;9.20;56.10;;;;;;6106603;23;19984;-80
2021/12/21 12:30:49;;;;;;;;;;;9.20;57.10;;;;;;6103016;23;19973;-79
2021/12/21 12:33:16;;;;;;;;;;;9.20;56.00;;;;;;6109464;23;19921;-81
2021/12/21 12:35:44;;;;;;;;;;;9.20;55.40;;;;;;6105565;23;19921;-80
2021/12/21 12:38:15;;;;;;;;;;;9.10;55.40;;;;;;6104906;23;19921;-79
2021/12/21 12:40:43;;;;;;;;;;;9.00;55.60;;;;;;6104801;23;20250;-80
2021/12/21 12:43:12;;;;;;;;;;;9.10;56.30;;;;;;6134469;23;20235;-80
2021/12/21 12:45:42;;;;;;;;;;;9.00;55.00;;;;;;6105566;23;19988;-80
2021/12/21 12:48:20;;;;;;;;;;;9.00;56.50;;;;;;6099254;23;19928;-79
2021/12/21 12:50:47;;;;;;;;;;;9.10;56.60;;;;;;6100582;23;19925;-79
2021/12/21 12:53:14;;;;;;;;;;;9.10;59.60;;;;;;6104979;23;19921;-79
2021/12/21 12:55:43;;;;;;;;;;;9.10;61.80;;;;;;6125681;23;19932;-79
2021/12/21 12:58:30;;;;;;;;;;;9.00;62.80;;;;;;6106124;23;20487;-81
2021/12/21 13:01:03;;;;;;;;;;;9.00;63.20;;;;;;6108539;23;19920;-80
2021/12/21 13:03:37;;;;;;;;;;;9.00;63.30;;;;;;6105347;23;19982;-80
2021/12/21 13:06:14;;;;;;;;;;;9.00;63.00;;;;;;6105329;23;19920;-80
2021/12/21 13:08:42;;;;;;;;;;;9.00;63.50;;;;;;6109182;23;19913;-80
2021/12/21 13:11:09;;;;;;;;;;;9.00;63.50;;;;;;6105877;23;19925;-79
2021/12/21 13:13:37;;;;;;;;;;;9.00;62.70;;;;;;6109739;23;19929;-81
2021/12/21 13:16:06;;;;;;;;;;;9.00;63.00;;;;;;6099626;23;19921;-81
2021/12/21 13:18:37;;;;;;;;;;;9.00;63.00;;;;;;6143103;23;19909;-80
2021/12/21 13:21:04;;;;;;;;;;;9.00;63.60;;;;;;6117772;23;19925;-80
2021/12/21 13:23:31;;;;;;;;;;;9.00;63.70;;;;;;6107604;23;20236;-80
2021/12/21 13:26:00;;;;;;;;;;;9.00;64.20;;;;;;6103833;23;19921;-79
2021/12/21 13:28:29;;;;;;;;;;;9.00;64.60;;;;;;6103343;23;19921;-80
2021/12/21 13:30:59;;;;;;;;;;;9.00;65.40;;;;;;6113293;23;19909;-80
2021/12/21 13:33:27;;;;;;;;;;;9.00;65.30;;;;;;6104184;23;19925;-80
2021/12/21 13:35:57;;;;;;;;;;;9.00;65.60;;;;;;6111066;23;19929;-79
2021/12/21 13:38:25;;;;;;;;;;;9.00;67.10;;;;;;6105018;23;20353;-79
2021/12/21 13:41:09;;;;;;;;;;;9.10;66.30;;;;;;6109772;23;19921;-79
2021/12/21 13:43:36;;;;;;;;;;;9.00;66.60;;;;;;6132683;23;19925;-79
2021/12/21 13:46:05;;;;;;;;;;;9.10;66.40;;;;;;6141013;23;19932;-79
2021/12/21 13:48:32;;;;;;;;;;;9.00;66.00;;;;;;6138884;23;19905;-79
2021/12/21 13:51:06;;;;;;;;;;;9.00;66.30;;;;;;6105401;23;20308;-81
2021/12/21 13:53:39;;;;;;;;;;;9.00;66.30;;;;;;6099423;23;19976;-79
2021/12/21 13:56:09;;;;;;;;;;;9.00;66.30;;;;;;6109905;23;19920;-80
2021/12/21 13:58:36;;;;;;;;;;;8.90;66.30;;;;;;6124321;23;19929;-80
2021/12/21 14:01:03;;;;;;;;;;;8.90;66.40;;;;;;6105175;23;20401;-79
2021/12/21 14:03:38;;;;;;;;;;;8.80;66.50;;;;;;6134535;23;19929;-80
2021/12/21 14:06:13;;;;;;;;;;;8.90;66.20;;;;;;6111157;23;19925;-81
2021/12/21 14:08:44;;;;;;;;;;;8.90;66.30;;;;;;6098884;23;20000;-78
2021/12/21 14:11:13;;;;;;;;;;;8.90;66.50;;;;;;6105227;23;19921;-80
2021/12/21 14:13:42;;;;;;;;;;;8.90;66.40;;;;;;6101465;23;19924;-80
2021/12/21 14:16:14;;;;;;;;;;;8.90;66.50;;;;;;6109373;23;19928;-79
2021/12/21 14:18:42;;;;;;;;;;;8.80;66.70;;;;;;6106283;23;19976;-79
2021/12/21 14:21:13;;;;;;;;;;;8.80;66.80;;;;;;6101749;23;19921;-79
2021/12/21 14:23:41;;;;;;;;;;;8.80;66.20;;;;;;6101444;23;19932;-81
2021/12/21 14:26:10;;;;;;;;;;;8.80;66.10;;;;;;6104941;23;19921;-81
2021/12/21 14:28:45;;;;;;;;;;;8.70;65.40;;;;;;6099251;23;20306;-80
2021/12/21 14:31:13;;;;;;;;;;;8.70;65.30;;;;;;6104695;23;19921;-79
2021/12/21 14:33:50;;;;;;;;;;;8.60;65.10;;;;;;6075492;23;20270;-81
2021/12/21 14:36:18;;;;;;;;;;;8.60;64.70;;;;;;6082207;23;19917;-79
2021/12/21 14:38:50;;;;;;;;;;;8.50;64.70;;;;;;6074886;23;19932;-80
2021/12/21 14:41:37;;;;;;;;;;;8.50;64.80;;;;;;6081441;23;20343;-79
2021/12/21 14:44:08;;;;;;;;;;;8.50;66.20;;;;;;6074317;23;19921;-80
2021/12/21 14:46:51;;;;;;;;;;;8.40;65.80;;;;;;6070758;23;19929;-80
2021/12/21 14:49:23;;;;;;;;;;;8.30;66.30;;;;;;6075430;23;19980;-80
2021/12/21 14:51:50;;;;;;;;;;;8.30;66.60;;;;;;6081864;23;19913;-80
2021/12/21 14:54:30;;;;;;;;;;;8.30;66.70;;;;;;6070103;23;19925;-79
2021/12/21 14:57:02;;;;;;;;;;;8.30;66.90;;;;;;6080007;23;19912;-80
2021/12/21 14:59:31;;;;;;;;;;;8.20;67.10;;;;;;6070476;23;19921;-80
2021/12/21 15:02:03;;;;;;;;;;;8.20;67.40;;;;;;6086108;23;19922;-80
2021/12/21 15:04:31;;;;;;;;;;;8.20;67.60;;;;;;6075986;23;20402;-79
2021/12/21 15:06:58;;;;;;;;;;;8.10;67.70;;;;;;6075616;23;19921;-79
2021/12/21 15:09:25;;;;;;;;;;;8.10;67.50;;;;;;6083658;23;19925;-80
2021/12/21 15:11:55;;;;;;;;;;;8.10;67.00;;;;;;6080650;23;19969;-79
2021/12/21 15:14:22;;;;;;;;;;;8.10;67.40;;;;;;6106702;23;19941;-80
2021/12/21 15:16:49;;;;;;;;;;;8.10;67.70;;;;;;6079832;23;19927;-80
2021/12/21 15:19:16;;;;;;;;;;;8.10;67.90;;;;;;6071626;23;19928;-80
2021/12/21 15:21:43;;;;;;;;;;;8.10;67.90;;;;;;6077712;23;19921;-79
2021/12/21 15:24:10;;;;;;;;;;;8.00;68.20;;;;;;6071515;23;19925;-79
2021/12/21 15:26:38;;;;;;;;;;;8.00;68.50;;;;;;6078275;23;19955;-79
2021/12/21 15:29:05;;;;;;;;;;;7.90;68.70;;;;;;6071454;23;19937;-80
2021/12/21 15:31:32;;;;;;;;;;;7.90;69.90;;;;;;6083049;23;19929;-80
2021/12/21 15:34:00;;;;;;;;;;;7.90;69.00;;;;;;6077164;23;19910;-80
2021/12/21 15:36:27;;;;;;;;;;;7.80;69.10;;;;;;6072112;23;20350;-79